メインページ
METAR-TAF:

METAR-TAF

空港 :

タラワ, キリバス

ボンリキ国際空港

緯度: 01-21N, 経度: 172-55E, 海抜: 2m

現時点の気象観測

当レポートは34分前の10:00(UTC)に作成
の風 9kt
気温 28°C
湿度 89%
気圧 1010 hPa
視程10km以上
高度1800ftの雲はほとんどない, 塔状積雲.

METAR: NGTA 231000Z 08009KT 9999 FEW018TCU 28/26 Q1010

時間: 00:34 (10:34 UTC)

予報

当レポートは5時間24分前の05:10(UTC)に作成
予報は23日の 06時(UTC)から 24日の 06時(UTC)まで有効
北東の風 10kt
視程10km以上
高度1700ftの雲は散在している
高度4000ftの雲は散在している

TAF: NGTA 230510Z 2306/2406 04010KT 9999 SCT017 SCT040

4,000以上の空港の気象観測と天気予報(METAR報とTAF報)

利用可能な観測所は地図上に黄色い丸と赤い丸で示す。

丸の上にカーソルを重ねると観測所名を参照できる。

次にクリックすると気象観測と天気予報を参照できる。

マップの切り替え:黒色「×」印の緑ボタンをクリックして拡大、「-」印の緑ボタンをクリックして縮小、緑色の三角印をクリックして隣りの地図に切り替え


METAR-TAF: